Pòrtol, Spain

3:15 PM CEST on September 04, 2015 (GMT +0200)
IPMMARRA2 | | Change Station
CLOSE
Current Station
Personal Weather Station
Location: Portol - Marratxi, PM
Elevation: 571 ft
Nearby Weather Stations

Elev 571 ft 39.62 °N, 2.77 °E | Updated 6 minutes ago

Scattered Clouds
Scattered Clouds
75.7 °F
Feels Like 77 °F
N
12.0
Wind Variable Wind from NE
Gusts 20.0 mph

Today
High -- | Low -- °F
--% Chance of Precip.
Yesterday
High -- | Low -- °F
Precip. -- in
7:19 AM 8:16 PM
Waning Gibbous, 59% visible
Pressure 29.89 in
Visibility 6.2 miles
Clouds Few 1800 ft
Scattered Clouds 4500 ft
Heat Index 77 °F
Dew Point 68 °F
Humidity 76%
Rainfall 0.61 in
Snow Depth Not available.
UV 7 out of 12
Pollen Not available.
Air Quality Not available.
Flu Activity Not available.
METAR LEPA 041300Z 07015KT 9999 FEW018 SCT045 27/21 Q1012 NOSIG
Pressure 29.89 in
Visibility 6.2 miles
Clouds Few 1800 ft
Scattered Clouds 4500 ft
Heat Index 77 °F
Dew Point 68 °F
Humidity 76%
Rainfall 0.61 in
Snow Depth Not available.
UV 7 out of 12
Pollen Not available.
Air Quality Not available.
Flu Activity Not available.
METAR LEPA 041300Z 07015KT 9999 FEW018 SCT045 27/21 Q1012 NOSIG

10-Day Weather Forecast

×

Almanac

Astronomy

Sep. 04, 2015 Rise Set
Actual Time
Civil Twilight
Nautical Twilight
Astronomical Twilight
Moon
Length of Visible Light
Length of Day
Tomorrow will be .
, % of the Moon is Illuminated

Today's Extremes

Country Highs Country Lows

Community

WunderPhotos

Upload Photos

1,852,179 photos uploaded!

WunderBlogs® & News

Nearby

Air Quality

  Air Quality AQ Index Pollutant
Not available.

Snow Depth

Station Depth Elevation

Earthquake Activity

City Distance Mag. Time & Date
Minimum magnitude displayed is 2.5.

Coastal Water Temperatures

Place Temperature

Stations

Nearby Weather Stations

Station Location Temp. Windchill Dew Point Humidity Wind Precip. Elev Updated Type